Aviation Digital Data Service (ADDS)

Output produced by METARs form (1510 UTC 29 May 2017)
found at http://www.aviationweather.gov/adds/metars/
 
METAR text: KAMW 291453Z AUTO 30014KT 10SM CLR 19/07 A2992 RMK AO2 SLP128 T01890072 53005
Conditions at: KAMW (AMES , IA, US) observed 1453 UTC 29 May 2017
Temperature: 18.9°C (66°F)
Dewpoint: 7.2°C (45°F) [RH = 47%]
Pressure (altimeter): 29.92 inches Hg (1013.3 mb)
[Sea-level pressure: 1012.8 mb]
Winds: from the WNW (300 degrees) at 16 MPH (14 knots; 7.3 m/s)
Visibility: 10 or more miles (16+ km)
Ceiling: at least 12,000 feet AGL
Clouds: sky clear below 12,000 feet AGL
Weather: automated observation with no human augmentation;
there may or may not be significant weather present at this time